createdAt,value
2018-12-24T00:02:32.253Z,0.37
2018-12-24T00:07:35.568Z,0.20
2018-12-24T00:12:39.053Z,0.20
2018-12-24T00:17:42.379Z,0.17
2018-12-24T00:22:45.728Z,0.20
2018-12-24T00:27:49.067Z,0.73
2018-12-24T00:32:53.421Z,0.17
2018-12-24T00:37:56.714Z,0.20
2018-12-24T00:43:00.078Z,0.10
2018-12-24T00:48:03.462Z,0.30
2018-12-24T00:53:06.799Z,0.10
2018-12-24T00:58:10.090Z,0.10
2018-12-24T01:03:13.555Z,0.20
2018-12-24T01:08:17.193Z,0.10
2018-12-24T01:13:20.516Z,0.10
2018-12-24T01:18:23.838Z,0.10
2018-12-24T01:23:27.147Z,0.27
2018-12-24T01:28:30.473Z,0.10
2018-12-24T01:33:33.811Z,0.10
2018-12-24T01:38:37.367Z,0.20
2018-12-24T01:43:40.665Z,0.20
2018-12-24T01:48:44.121Z,0.30
2018-12-24T01:53:47.553Z,0.60
2018-12-24T01:58:50.980Z,0.40
2018-12-24T02:03:54.530Z,0.40
2018-12-24T02:08:57.992Z,0.43
2018-12-24T02:14:01.560Z,0.27
2018-12-24T02:19:05.007Z,0.30
2018-12-24T02:24:08.468Z,0.30
2018-12-24T02:29:11.899Z,0.30
2018-12-24T02:34:15.233Z,0.50
2018-12-24T02:39:18.853Z,0.20
2018-12-24T02:44:22.188Z,0.25
2018-12-24T02:49:25.488Z,0.20
2018-12-24T02:54:28.795Z,0.30
2018-12-24T02:59:32.234Z,0.20
2018-12-24T03:04:35.622Z,0.20
2018-12-24T03:09:39.028Z,0.20
2018-12-24T03:14:42.516Z,0.20
2018-12-24T03:19:46.098Z,0.20
2018-12-24T03:24:49.489Z,0.10
2018-12-24T03:29:53.159Z,0.20
2018-12-24T03:34:56.634Z,0.17
2018-12-24T03:39:59.935Z,0.20
2018-12-24T03:45:03.310Z,0.17
2018-12-24T03:50:06.623Z,0.20
2018-12-24T03:55:09.928Z,0.30
2018-12-24T04:00:13.235Z,0.30
2018-12-24T04:05:16.276Z,0.40
2018-12-24T04:10:20.323Z,0.20
2018-12-24T04:15:23.859Z,0.17
2018-12-24T04:20:27.255Z,0.30
2018-12-24T04:25:30.691Z,0.20
2018-12-24T04:30:34.015Z,0.30
2018-12-24T04:35:37.392Z,0.28
2018-12-24T04:40:40.851Z,0.30
2018-12-24T04:45:44.197Z,0.47
2018-12-24T04:50:47.658Z,0.43
2018-12-24T04:55:50.990Z,0.30
2018-12-24T05:00:54.386Z,0.17
2018-12-24T05:05:57.776Z,0.33
2018-12-24T05:11:01.408Z,0.20
2018-12-24T05:16:04.848Z,0.20
2018-12-24T05:21:08.221Z,0.20
2018-12-24T05:26:11.533Z,0.20
2018-12-24T05:31:14.951Z,0.20
2018-12-24T05:36:18.462Z,0.20
2018-12-24T05:41:21.773Z,0.20
2018-12-24T05:46:25.249Z,0.33
2018-12-24T05:51:28.569Z,0.23
2018-12-24T05:56:31.870Z,0.30
2018-12-24T06:01:35.407Z,0.40
2018-12-24T06:06:38.788Z,0.30
2018-12-24T06:11:42.167Z,0.30
2018-12-24T06:16:45.516Z,0.50
2018-12-24T06:21:48.843Z,0.50
2018-12-24T06:26:52.296Z,0.40
2018-12-24T06:31:55.613Z,0.57
2018-12-24T06:36:59.129Z,0.40
2018-12-24T06:42:02.427Z,0.37
2018-12-24T06:47:05.857Z,0.50
2018-12-24T06:52:09.355Z,0.37
2018-12-24T06:57:12.694Z,0.53
2018-12-24T07:02:16.035Z,1.63
2018-12-24T07:07:19.563Z,0.53
2018-12-24T07:12:22.900Z,0.50
2018-12-24T07:17:26.176Z,0.50
2018-12-24T07:22:29.539Z,0.97
2018-12-24T07:27:32.992Z,0.50
2018-12-24T07:32:36.388Z,0.42
2018-12-24T07:37:39.793Z,0.50
2018-12-24T07:42:43.108Z,0.60
2018-12-24T07:47:46.498Z,0.53
2018-12-24T07:52:49.856Z,0.50
2018-12-24T07:57:53.191Z,0.60
2018-12-24T08:02:56.708Z,0.40
2018-12-24T08:08:12.411Z,0.37
2018-12-24T08:13:15.697Z,0.40
2018-12-24T08:18:18.972Z,0.60
2018-12-24T08:23:45.641Z,0.67
2018-12-24T08:28:52.349Z,0.40
2018-12-24T08:34:07.950Z,0.40
2018-12-24T08:39:14.446Z,0.30
2018-12-24T08:44:17.742Z,0.27
2018-12-24T08:49:23.085Z,1.00
2018-12-24T08:54:27.432Z,0.30
2018-12-24T08:59:30.746Z,0.40
2018-12-24T09:04:37.645Z,0.30
2018-12-24T09:09:53.628Z,0.50
2018-12-24T09:15:04.158Z,0.30
2018-12-24T09:20:08.384Z,1.17
2018-12-24T09:25:17.490Z,0.77
2018-12-24T09:30:33.915Z,0.60
2018-12-24T09:35:39.271Z,0.67
2018-12-24T09:40:52.298Z,1.17
2018-12-24T09:46:12.615Z,0.77
2018-12-24T09:51:17.047Z,0.53
2018-12-24T09:56:25.514Z,1.70
2018-12-24T10:01:47.557Z,1.80
2018-12-24T10:06:55.618Z,1.47
2018-12-24T10:12:01.006Z,0.40
2018-12-24T10:17:11.312Z,1.37
2018-12-24T10:22:15.697Z,0.75
2018-12-24T10:27:32.627Z,0.70
2018-12-24T10:32:39.922Z,1.23
2018-12-24T10:37:46.899Z,0.67
2018-12-24T10:42:57.023Z,0.80
2018-12-24T10:48:05.247Z,0.60
2018-12-24T10:53:08.510Z,0.40
2018-12-24T10:58:15.530Z,0.50
2018-12-24T11:03:18.902Z,0.60
2018-12-24T11:08:22.262Z,0.70
2018-12-24T11:13:43.534Z,0.50
2018-12-24T11:18:48.928Z,0.30
2018-12-24T11:23:56.236Z,0.40
2018-12-24T11:29:11.932Z,0.40
2018-12-24T11:34:19.157Z,0.60
2018-12-24T11:39:22.605Z,0.40
2018-12-24T11:44:26.014Z,0.60
2018-12-24T11:49:29.289Z,0.40
2018-12-24T11:54:32.621Z,0.30
2018-12-24T11:59:39.101Z,1.20
2018-12-24T12:04:48.159Z,0.50
2018-12-24T12:10:09.849Z,0.20
2018-12-24T12:15:19.015Z,0.60
2018-12-24T12:20:24.534Z,0.47
2018-12-24T12:25:27.827Z,0.50
2018-12-24T12:30:35.933Z,0.70
2018-12-24T12:41:07.674Z,0.23
2018-12-24T12:46:11.141Z,0.25
2018-12-24T12:51:14.642Z,0.40
2018-12-24T12:56:17.998Z,0.60
2018-12-24T13:01:21.358Z,0.40
2018-12-24T13:06:24.778Z,0.40
2018-12-24T13:11:28.193Z,0.40
2018-12-24T13:16:31.545Z,0.53
2018-12-24T13:21:34.906Z,0.60
2018-12-24T13:26:38.454Z,0.60
2018-12-24T13:31:41.754Z,0.30
2018-12-24T13:36:45.071Z,0.60
2018-12-24T13:41:48.549Z,1.00
2018-12-24T13:46:51.882Z,1.70
2018-12-24T13:51:55.266Z,1.33
2018-12-24T13:56:58.688Z,1.40
2018-12-24T14:02:02.075Z,1.40
2018-12-24T14:07:05.574Z,1.07
2018-12-24T14:12:09.021Z,3.83
2018-12-24T14:17:12.442Z,6.23
2018-12-24T14:22:15.761Z,0.97
2018-12-24T14:27:19.075Z,1.33
2018-12-24T14:32:22.571Z,1.67
2018-12-24T14:37:25.979Z,3.23
2018-12-24T14:42:29.342Z,1.40
2018-12-24T14:47:32.666Z,1.90
2018-12-24T14:52:36.050Z,1.30
2018-12-24T14:57:39.503Z,4.30
2018-12-24T15:02:42.890Z,1.57
2018-12-24T15:07:46.285Z,0.70
2018-12-24T15:12:49.657Z,0.87
2018-12-24T15:17:53.018Z,2.03
2018-12-24T15:22:56.381Z,1.20
2018-12-24T15:27:59.750Z,0.73
2018-12-24T15:33:03.050Z,0.40
2018-12-24T15:38:06.434Z,1.07
2018-12-24T15:43:10.260Z,0.60
2018-12-24T15:48:13.647Z,0.70
2018-12-24T15:53:17.134Z,1.15
2018-12-24T15:58:20.514Z,0.73
2018-12-24T16:03:23.883Z,1.10
2018-12-24T16:08:27.391Z,1.03
2018-12-24T16:13:30.710Z,0.77
2018-12-24T16:18:34.081Z,0.40
2018-12-24T16:23:37.384Z,0.80
2018-12-24T16:28:40.754Z,1.00
2018-12-24T16:33:44.057Z,1.37
2018-12-24T16:38:47.425Z,0.83
2018-12-24T16:43:50.706Z,0.80
2018-12-24T16:48:54.081Z,1.30
2018-12-24T16:53:57.422Z,1.00
2018-12-24T16:59:00.794Z,0.77
2018-12-24T17:04:04.144Z,0.78
2018-12-24T17:09:07.574Z,0.60
2018-12-24T17:14:10.946Z,1.20
2018-12-24T17:19:14.390Z,1.77
2018-12-24T17:24:17.771Z,0.73
2018-12-24T17:29:21.209Z,0.87
2018-12-24T17:34:24.591Z,0.93
2018-12-24T17:39:28.047Z,1.60
2018-12-24T17:44:31.415Z,2.13
2018-12-24T17:49:34.782Z,1.93
2018-12-24T17:54:38.138Z,1.77
2018-12-24T17:59:41.519Z,2.10
2018-12-24T18:04:44.986Z,2.00
2018-12-24T18:09:48.383Z,2.37
2018-12-24T18:14:52.847Z,2.37
2018-12-24T18:19:56.209Z,2.57
2018-12-24T18:25:03.280Z,2.03
2018-12-24T18:30:07.274Z,1.43
2018-12-24T18:35:10.710Z,1.53
2018-12-24T18:40:14.201Z,1.07
2018-12-24T18:45:17.615Z,1.90
2018-12-24T18:50:21.033Z,1.30
2018-12-24T18:55:24.435Z,1.97
2018-12-24T19:00:27.830Z,1.10
2018-12-24T19:05:31.329Z,1.00
2018-12-24T19:10:34.764Z,1.30
2018-12-24T19:15:38.288Z,1.40
2018-12-24T19:20:41.711Z,1.83
2018-12-24T19:25:45.122Z,1.73
2018-12-24T19:30:48.610Z,1.90
2018-12-24T19:35:52.038Z,1.70
2018-12-24T19:40:55.490Z,1.72
2018-12-24T19:45:58.882Z,2.13
2018-12-24T19:51:04.317Z,2.17
2018-12-24T19:56:07.710Z,1.80
2018-12-24T20:01:11.167Z,2.47
2018-12-24T20:06:14.924Z,1.97
2018-12-24T20:11:18.392Z,3.37
2018-12-24T20:16:21.872Z,4.50
2018-12-24T20:21:25.281Z,3.23
2018-12-24T20:26:28.708Z,1.97
2018-12-24T20:31:32.105Z,0.90
2018-12-24T20:36:35.697Z,1.83
2018-12-24T20:41:39.137Z,2.73
2018-12-24T20:46:42.537Z,1.23
2018-12-24T20:51:45.910Z,0.97
2018-12-24T20:56:49.369Z,1.27
2018-12-24T21:01:52.747Z,1.00
2018-12-24T21:06:57.248Z,1.03
2018-12-24T21:12:00.606Z,1.00
2018-12-24T21:17:04.028Z,0.87
2018-12-24T21:22:07.434Z,1.63
2018-12-24T21:27:10.902Z,1.70
2018-12-24T21:32:14.393Z,1.40
2018-12-24T21:37:17.770Z,1.13
2018-12-24T21:42:21.193Z,1.20
2018-12-24T21:47:24.574Z,1.60
2018-12-24T21:52:28.014Z,0.93
2018-12-24T21:57:31.443Z,1.20
2018-12-24T22:02:34.879Z,1.43
2018-12-24T22:07:38.335Z,1.27
2018-12-24T22:12:41.606Z,1.03
2018-12-24T22:17:45.454Z,1.30
2018-12-24T22:22:49.044Z,1.10
2018-12-24T22:27:52.588Z,0.67
2018-12-24T22:32:56.277Z,0.53
2018-12-24T22:38:00.303Z,1.23
2018-12-24T22:43:05.155Z,1.50
2018-12-24T22:48:08.867Z,1.70
2018-12-24T22:53:12.436Z,1.53
2018-12-24T22:58:15.964Z,1.67
2018-12-24T23:03:19.268Z,1.10
2018-12-24T23:08:22.778Z,1.40
2018-12-24T23:13:27.318Z,0.83
2018-12-24T23:18:30.573Z,1.40
2018-12-24T23:23:34.553Z,1.00
2018-12-24T23:28:38.034Z,1.40
2018-12-24T23:33:41.329Z,0.93
2018-12-24T23:38:44.678Z,1.47
2018-12-24T23:43:47.975Z,1.33
2018-12-24T23:48:57.612Z,1.03
2018-12-24T23:53:54.565Z,1.33
2018-12-24T23:58:57.578Z,0.97
